• Join FlightAware (Why Join?)
  • Login
  • US Flag 
03:06AM EDT


 

Airport Tracker/Info


-or-


 

Live Flight TrackerFlight Track Log ✈ AAL265 ✈ 2013年 05月 08日 ✈ KLAX - PHLI / LIH

Flight Track Log - Related Links

Times and Time Zones

All times are in EDT time to prevent confusion due to time zone crossing. See the AAL265 flight status page for this flight to view local times or setup timezone preferences in your user account.

Time Position Orientation Groundspeed Altitude Reporting Facility
EDT Latitude Longitude Course Direction KTS MPH feet Rate Location/Type
12:16PM 33.9410 -118.4960 262° West 215 247 2,400  Level FlightAware
12:16PM 33.9390 -118.5160 263° West 228 262 3,000 1,980 Climbing FlightAware
12:17PM 33.9350 -118.5520 262° West 257 296 3,900 2,400 Climbing FlightAware
12:17PM 33.9290 -118.6020 262° West 264 304 5,400 2,400 Climbing FlightAware
12:18PM 33.9240 -118.6390 261° West 282 325 6,100 2,460 Climbing FlightAware
12:18PM 33.9170 -118.6850 260° West 275 316 7,700 3,120 Climbing FlightAware
12:19PM 33.9130 -118.7230 263° West 265 305 9,000 2,400 Climbing FlightAware
12:19PM 33.9090 -118.7660 264° West 283 326 9,900 1,320 Climbing FlightAware
12:20PM 33.9040 -118.8360 265° West 324 373 10,600 1,320 Climbing FlightAware
12:20PM 33.9190 -118.9180 282° West 347 399 11,800 1,800 Climbing FlightAware
12:21PM 33.9320 -118.9850 283° West 353 406 13,000 1,920 Climbing FlightAware
12:22PM 33.9500 -119.0790 283° West 365 420 14,600 2,220 Climbing FlightAware
12:22PM 33.9620 -119.1400 283° West 358 412 16,000 1,920 Climbing FlightAware
12:23PM 33.9860 -119.2690 283° West 380 437 17,700 1,740 Climbing FlightAware
12:24PM 34.0040 -119.3610 283° West 382 440 19,200 1,800 Climbing FlightAware
12:25PM 34.0200 -119.4460 283° West 389 448 20,300 1,560 Climbing FlightAware
12:26PM 34.0370 -119.5320 283° West 396 456 21,300 1,440 Climbing FlightAware
12:26PM 34.0550 -119.6220 284° West 399 459 22,400 1,440 Climbing FlightAware
12:28PM 34.0980 -119.8430 283° West 408 470 24,800 1,320 Climbing FlightAware
12:29PM 34.1120 -119.9190 283° West 411 473 25,500 1,320 Climbing FlightAware
12:29PM 34.1320 -120.0220 283° West 412 474 26,600 1,260 Climbing FlightAware
12:30PM 34.1560 -120.1450 283° West 420 483 27,600 1,080 Climbing FlightAware
12:31PM 34.1780 -120.2460 285° West 422 486 28,400 1,200 Climbing FlightAware
12:32PM 34.1910 -120.3400 280° West 430 495 29,300 1,320 Climbing FlightAware
12:33PM 34.1870 -120.4740 268° West 435 501 30,500 1,560 Climbing FlightAware
12:33PM 34.1750 -120.5810 262° West 429 494 31,900 1,620 Climbing FlightAware
12:34PM 34.1490 -120.6640 249° West 430 495 32,800 1,440 Climbing FlightAware
12:35PM 34.1230 -120.7430 248° West 428 493 33,700 1,080 Climbing FlightAware
12:36PM 34.0770 -120.8780 248° West 426 490 34,600 900 Climbing FlightAware
12:36PM 34.0440 -120.9740 247° West 431 496 35,300 960 Climbing FlightAware
12:37PM 34.0060 -121.0880 248° West 431 496 36,200 600 Climbing FlightAware
12:38PM 33.9790 -121.1630 247° West 431 496 36,200  Level FlightAware
12:39PM 33.9460 -121.2570 247° West 431 496 36,200  Level FlightAware
12:39PM 33.9200 -121.3320 247° West 431 496 36,200  Level FlightAware
12:40PM 33.8930 -121.4070 247° West 431 496 36,200  Level FlightAware
12:41PM 33.8670 -121.4820 247° West 431 496 36,200  Level FlightAware
12:41PM 33.8330 -121.5760 246° West 431 496 36,200  Level FlightAware
12:42PM 33.8070 -121.6510 247° West 431 496 36,200  Level FlightAware
12:43PM 33.7800 -121.7270 247° West 431 496 36,200  Level FlightAware
12:43PM 33.7540 -121.8020 247° West 431 496 36,200  Level FlightAware
12:44PM 33.7270 -121.8770 247° West 431 496 36,200  Level FlightAware
12:45PM 33.7010 -121.9520 247° West 431 496 36,200  Level FlightAware
12:46PM 33.6680 -122.0450 247° West 431 496 36,200  Level FlightAware
12:46PM 33.6410 -122.1200 247° West 431 496 36,200 420 Level FlightAware
12:47PM 33.5275 -122.4567 247° West 429 494 37,000 360 Climbing Los Angeles Center
12:48PM 33.4811 -122.5883 247° West 429 494 37,000  Level Los Angeles Center
12:50PM 33.4506 -122.7351 256° West  Level FlightAware Approximate
12:57PM 33.2494 -123.6806 256° West  Level FlightAware Approximate
12:58PM 33.2200 -123.8153 255° West  Level FlightAware Approximate
12:59PM 33.1905 -123.9500 255° West  Level FlightAware Approximate
01:00PM 33.1609 -124.0845 255° West  Level FlightAware Approximate
01:01PM 33.1311 -124.2189 255° West  Level FlightAware Approximate
01:02PM 33.1012 -124.3533 255° West  Level FlightAware Approximate
01:03PM 33.0667 -124.4841 270° West  Level FlightAware Approximate
01:04PM 33.0437 -124.6195 255° West  Level FlightAware Approximate
01:05PM 33.0137 -124.7537 255° West  Level FlightAware Approximate
01:05PM 33.0667 -124.5167 255° West 419 482 37,000  Level Oakland Oceanic (ODAPS)
01:06PM 32.9837 -124.8866 255° West  Level FlightAware Approximate
01:07PM 32.9536 -125.0193 255° West  Level FlightAware Approximate
01:08PM 32.9234 -125.1521 255° West  Level FlightAware Approximate
01:09PM 32.8936 -125.2824 255° West  Level FlightAware Approximate
01:10PM 32.8636 -125.4126 255° West  Level FlightAware Approximate
01:11PM 32.7918 -125.7198 254° West 419 482 37,000  Level FlightAware Transoceanic
01:12PM 32.7606 -125.8530 254° West 419 482 37,000  Level FlightAware Transoceanic
01:13PM 32.7292 -125.9861 254° West 419 482 37,000  Level FlightAware Transoceanic
01:14PM 32.6976 -126.1191 254° West 419 482 37,000  Level FlightAware Transoceanic
01:15PM 32.6660 -126.2521 254° West 419 482 37,000  Level FlightAware Transoceanic
01:16PM 32.6342 -126.3849 254° West 419 482 37,000  Level FlightAware Transoceanic
01:17PM 32.6022 -126.5177 254° West 419 482 37,000  Level FlightAware Transoceanic
01:18PM 32.5701 -126.6503 254° West 419 482 37,000  Level FlightAware Transoceanic
01:19PM 32.5379 -126.7829 254° West 419 482 37,000  Level FlightAware Transoceanic
01:20PM 32.5055 -126.9153 254° West 419 482 37,000  Level FlightAware Transoceanic
01:21PM 32.4730 -127.0477 254° West 419 482 37,000  Level FlightAware Transoceanic
01:22PM 32.4403 -127.1800 254° West 419 482 37,000  Level FlightAware Transoceanic
01:23PM 32.4076 -127.3121 254° West 419 482 37,000  Level FlightAware Transoceanic
01:24PM 32.3746 -127.4442 254° West 419 482 37,000  Level FlightAware Transoceanic
01:25PM 32.3416 -127.5762 253° West 419 482 37,000  Level FlightAware Transoceanic
01:26PM 32.3084 -127.7081 253° West 419 482 37,000  Level FlightAware Transoceanic
01:27PM 32.2751 -127.8399 253° West 419 482 37,000  Level FlightAware Transoceanic
01:28PM 32.2416 -127.9715 253° West 419 482 37,000  Level FlightAware Transoceanic
01:29PM 32.2080 -128.1031 253° West 419 482 37,000  Level FlightAware Transoceanic
01:30PM 32.1742 -128.2346 253° West 419 482 37,000  Level FlightAware Transoceanic
01:31PM 32.1404 -128.3660 253° West 419 482 37,000  Level FlightAware Transoceanic
01:32PM 32.1063 -128.4973 253° West 419 482 37,000  Level FlightAware Transoceanic
01:33PM 32.0722 -128.6285 253° West 419 482 37,000  Level FlightAware Transoceanic
01:34PM 32.0379 -128.7596 253° West 419 482 37,000  Level FlightAware Transoceanic
01:35PM 32.0035 -128.8907 253° West 419 482 37,000  Level FlightAware Transoceanic
01:36PM 31.9689 -129.0215 253° West 419 482 37,000  Level FlightAware Transoceanic
01:37PM 31.9342 -129.1524 253° West 419 482 37,000  Level FlightAware Transoceanic
01:38PM 31.8994 -129.2831 253° West 419 482 37,000  Level FlightAware Transoceanic
01:39PM 31.8645 -129.4137 252° West 419 482 37,000  Level FlightAware Transoceanic
01:40PM 31.8294 -129.5442 252° West 419 482 37,000  Level FlightAware Transoceanic
01:41PM 31.7941 -129.6746 252° West 419 482 37,000  Level FlightAware Transoceanic
01:42PM 31.7588 -129.8049 252° West 419 482 37,000  Level FlightAware Transoceanic
01:43PM 31.7233 -129.9351 252° West 419 482 37,000  Level FlightAware Transoceanic
01:44PM 31.6877 -130.0652 252° West 419 482 37,000  Level FlightAware Transoceanic
01:45PM 31.6519 -130.1953 252° West 419 482 37,000  Level FlightAware Transoceanic
01:46PM 31.6161 -130.3252 252° West 419 482 37,000  Level FlightAware Transoceanic
01:47PM 31.5800 -130.4550 252° West 419 482 37,000  Level FlightAware Transoceanic
01:48PM 31.5439 -130.5847 252° West 419 482 37,000  Level FlightAware Transoceanic
01:49PM 31.5076 -130.7143 252° West 419 482 37,000  Level FlightAware Transoceanic
01:50PM 31.4712 -130.8438 252° West 419 482 37,000  Level FlightAware Transoceanic
01:51PM 31.4347 -130.9732 252° West 419 482 37,000  Level FlightAware Transoceanic
01:52PM 31.3980 -131.1025 252° West 419 482 37,000  Level FlightAware Transoceanic
01:53PM 31.3612 -131.2317 252° West 419 482 37,000  Level FlightAware Transoceanic
01:54PM 31.3243 -131.3608 251° West 419 482 37,000  Level FlightAware Transoceanic
01:55PM 31.2872 -131.4898 251° West 419 482 37,000  Level FlightAware Transoceanic
01:56PM 31.2500 -131.6187 251° West 419 482 37,000  Level FlightAware Transoceanic
01:57PM 31.2127 -131.7475 251° West 419 482 37,000  Level FlightAware Transoceanic
01:58PM 31.1753 -131.8762 251° West 419 482 37,000  Level FlightAware Transoceanic
01:59PM 31.1377 -132.0048 251° West 419 482 37,000  Level FlightAware Transoceanic
02:00PM 31.1000 -132.1333 251° West 419 482 37,000  Level FlightAware Transoceanic
02:00PM 31.1000 -132.1333 251° West 413 475 37,000  Level Oakland Oceanic (ODAPS)
02:01PM 31.0621 -132.2622 251° West 419 482 37,000  Level FlightAware Transoceanic
02:02PM 31.0241 -132.3909 251° West 419 482 37,000  Level FlightAware Transoceanic
02:03PM 30.9859 -132.5195 251° West 419 482 37,000  Level FlightAware Transoceanic
02:04PM 30.9477 -132.6480 251° West 419 482 37,000  Level FlightAware Transoceanic
02:05PM 30.9093 -132.7765 251° West 419 482 37,000  Level FlightAware Transoceanic
02:06PM 30.8367 -133.0178 251° West 413 475 37,000  Level FlightAware Transoceanic
02:07PM 30.7986 -133.1437 251° West 413 475 37,000  Level FlightAware Transoceanic
02:08PM 30.7603 -133.2696 250° West 413 475 37,000  Level FlightAware Transoceanic
02:09PM 30.7220 -133.3953 250° West 413 475 37,000  Level FlightAware Transoceanic
02:10PM 30.6835 -133.5210 250° West 413 475 37,000  Level FlightAware Transoceanic
02:11PM 30.6449 -133.6465 250° West 413 475 37,000  Level FlightAware Transoceanic
02:12PM 30.6062 -133.7720 250° West 413 475 37,000  Level FlightAware Transoceanic
02:13PM 30.5674 -133.8973 250° West 413 475 37,000  Level FlightAware Transoceanic
02:14PM 30.5284 -134.0226 250° West 413 475 37,000  Level FlightAware Transoceanic
02:15PM 30.4893 -134.1477 250° West 413 475 37,000  Level FlightAware Transoceanic
02:16PM 30.4502 -134.2728 250° West 413 475 37,000  Level FlightAware Transoceanic
02:17PM 30.4109 -134.3977 250° West 413 475 37,000  Level FlightAware Transoceanic
02:18PM 30.3714 -134.5226 250° West 413 475 37,000  Level FlightAware Transoceanic
02:19PM 30.3319 -134.6473 250° West 413 475 37,000  Level FlightAware Transoceanic
02:20PM 30.2922 -134.7720 250° West 413 475 37,000  Level FlightAware Transoceanic
02:21PM 30.2524 -134.8965 250° West 413 475 37,000  Level FlightAware Transoceanic
02:22PM 30.2125 -135.0209 250° West 413 475 37,000  Level FlightAware Transoceanic
02:23PM 30.1725 -135.1453 250° West 413 475 37,000  Level FlightAware Transoceanic
02:24PM 30.1324 -135.2695 249° West 413 475 37,000  Level FlightAware Transoceanic
02:25PM 30.0921 -135.3937 249° West 413 475 37,000  Level FlightAware Transoceanic
02:26PM 30.0517 -135.5177 249° West 413 475 37,000  Level FlightAware Transoceanic
02:27PM 30.0112 -135.6416 249° West 413 475 37,000  Level FlightAware Transoceanic
02:28PM 29.9706 -135.7655 249° West 413 475 37,000  Level FlightAware Transoceanic
02:29PM 29.9299 -135.8892 249° West 413 475 37,000  Level FlightAware Transoceanic
02:30PM 29.8891 -136.0128 249° West 413 475 37,000  Level FlightAware Transoceanic
02:31PM 29.8481 -136.1364 249° West 413 475 37,000  Level FlightAware Transoceanic
02:32PM 29.8071 -136.2598 249° West 413 475 37,000  Level FlightAware Transoceanic
02:33PM 29.7659 -136.3831 249° West 413 475 37,000  Level FlightAware Transoceanic
02:34PM 29.7246 -136.5064 249° West 413 475 37,000  Level FlightAware Transoceanic
02:35PM 29.6832 -136.6295 249° West 413 475 37,000  Level FlightAware Transoceanic
02:36PM 29.6417 -136.7525 249° West 413 475 37,000  Level FlightAware Transoceanic
02:37PM 29.6000 -136.8754 249° West 413 475 37,000  Level FlightAware Transoceanic
02:38PM 29.5583 -136.9983 249° West 413 475 37,000  Level FlightAware Transoceanic
02:39PM 29.5164 -137.1210 249° West 413 475 37,000  Level FlightAware Transoceanic
02:40PM 29.4744 -137.2436 249° West 413 475 37,000  Level FlightAware Transoceanic
02:41PM 29.4324 -137.3661 248° West 413 475 37,000  Level FlightAware Transoceanic
02:42PM 29.3902 -137.4885 248° West 413 475 37,000  Level FlightAware Transoceanic
02:43PM 29.3479 -137.6108 248° West 413 475 37,000  Level FlightAware Transoceanic
02:44PM 29.3054 -137.7330 248° West 413 475 37,000  Level FlightAware Transoceanic
02:45PM 29.2629 -137.8552 248° West 413 475 37,000  Level FlightAware Transoceanic
02:46PM 29.2203 -137.9772 248° West 413 475 37,000  Level FlightAware Transoceanic
02:47PM 29.1775 -138.0991 248° West 413 475 37,000  Level FlightAware Transoceanic
02:48PM 29.1346 -138.2209 248° West 413 475 37,000  Level FlightAware Transoceanic
02:49PM 29.0917 -138.3426 248° West 413 475 37,000  Level FlightAware Transoceanic
02:50PM 29.0486 -138.4642 248° West 413 475 37,000  Level FlightAware Transoceanic
02:51PM 29.0054 -138.5857 248° West 413 475 37,000  Level FlightAware Transoceanic
02:52PM 28.9621 -138.7071 248° West 413 475 37,000  Level FlightAware Transoceanic
02:53PM 28.9187 -138.8284 248° West 413 475 37,000  Level FlightAware Transoceanic
02:54PM 28.8752 -138.9496 248° West 413 475 37,000  Level FlightAware Transoceanic
02:55PM 28.8315 -139.0707 248° West 413 475 37,000  Level FlightAware Transoceanic
02:56PM 28.7878 -139.1917 248° West 413 475 37,000  Level FlightAware Transoceanic
02:57PM 28.7439 -139.3125 247° West 413 475 37,000  Level FlightAware Transoceanic
02:58PM 28.7000 -139.4333 247° West 413 475 37,000  Level FlightAware Transoceanic
02:59PM 28.6563 -139.5522 247° West 413 475 37,000  Level FlightAware Transoceanic
02:59PM 28.7000 -139.4333 247° West 400 460 37,000  Level Oakland Oceanic (ODAPS)
03:00PM 28.6124 -139.6710 247° West 413 475 37,000  Level FlightAware Transoceanic
03:01PM 28.5685 -139.7897 247° West 413 475 37,000  Level FlightAware Transoceanic
03:02PM 28.5244 -139.9083 247° West 413 475 37,000  Level FlightAware Transoceanic
03:03PM 28.4803 -140.0268 247° West 413 475 37,000  Level FlightAware Transoceanic
03:04PM 28.4360 -140.1452 247° West 413 475 37,000  Level FlightAware Transoceanic
03:05PM 28.3532 -140.3657 247° West 400 460 37,000  Level FlightAware Transoceanic
03:06PM 28.3094 -140.4818 247° West 400 460 37,000  Level FlightAware Transoceanic
03:07PM 28.2655 -140.5978 247° West 400 460 37,000  Level FlightAware Transoceanic
03:08PM 28.2215 -140.7137 247° West 400 460 37,000  Level FlightAware Transoceanic
03:09PM 28.1775 -140.8296 247° West 400 460 37,000  Level FlightAware Transoceanic
03:10PM 28.1333 -140.9453 247° West 400 460 37,000  Level FlightAware Transoceanic
03:11PM 28.0890 -141.0609 247° West 400 460 37,000  Level FlightAware Transoceanic
03:12PM 28.0446 -141.1765 246° West 400 460 37,000  Level FlightAware Transoceanic
03:13PM 28.0001 -141.2919 246° West 400 460 37,000  Level FlightAware Transoceanic
03:14PM 27.9556 -141.4073 246° West 400 460 37,000  Level FlightAware Transoceanic
03:15PM 27.9109 -141.5225 246° West 400 460 37,000  Level FlightAware Transoceanic
03:16PM 27.8661 -141.6377 246° West 400 460 37,000  Level FlightAware Transoceanic
03:17PM 27.8213 -141.7527 246° West 400 460 37,000  Level FlightAware Transoceanic
03:18PM 27.7763 -141.8677 246° West 400 460 37,000  Level FlightAware Transoceanic
03:19PM 27.7313 -141.9826 246° West 400 460 37,000  Level FlightAware Transoceanic
03:20PM 27.6861 -142.0973 246° West 400 460 37,000  Level FlightAware Transoceanic
03:21PM 27.6409 -142.2120 246° West 400 460 37,000  Level FlightAware Transoceanic
03:22PM 27.5956 -142.3266 246° West 400 460 37,000  Level FlightAware Transoceanic
03:23PM 27.5501 -142.4411 246° West 400 460 37,000  Level FlightAware Transoceanic
03:24PM 27.5046 -142.5555 246° West 400 460 37,000  Level FlightAware Transoceanic
03:25PM 27.4590 -142.6698 246° West 400 460 37,000  Level FlightAware Transoceanic
03:26PM 27.4133 -142.7840 246° West 400 460 37,000  Level FlightAware Transoceanic
03:27PM 27.3675 -142.8981 246° West 400 460 37,000  Level FlightAware Transoceanic
03:28PM 27.3216 -143.0121 246° West 400 460 37,000  Level FlightAware Transoceanic
03:29PM 27.2756 -143.1261 246° West 400 460 37,000  Level FlightAware Transoceanic
03:30PM 27.2295 -143.2399 245° Southwest 400 460 37,000  Level FlightAware Transoceanic
03:31PM 27.1834 -143.3536 245° Southwest 400 460 37,000  Level FlightAware Transoceanic
03:32PM 27.1371 -143.4673 245° Southwest 400 460 37,000  Level FlightAware Transoceanic
03:33PM 27.0907 -143.5808 245° Southwest 400 460 37,000  Level FlightAware Transoceanic
03:34PM 27.0443 -143.6943 245° Southwest 400 460 37,000  Level FlightAware Transoceanic
03:35PM 26.9978 -143.8076 245° Southwest 400 460 37,000  Level FlightAware Transoceanic
03:36PM 26.9512 -143.9209 245° Southwest 400 460 37,000  Level FlightAware Transoceanic
03:37PM 26.9044 -144.0341 245° Southwest 400 460 37,000  Level FlightAware Transoceanic
03:38PM 26.8576 -144.1472 245° Southwest 400 460 37,000  Level FlightAware Transoceanic
03:39PM 26.8107 -144.2601 245° Southwest 400 460 37,000  Level FlightAware Transoceanic
03:40PM 26.7637 -144.3730 245° Southwest 400 460 37,000  Level FlightAware Transoceanic
03:41PM 26.7167 -144.4858 245° Southwest 400 460 37,000  Level FlightAware Transoceanic
03:42PM 26.6695 -144.5985 245° Southwest 400 460 37,000  Level FlightAware Transoceanic
03:43PM 26.6222 -144.7112 245° Southwest 400 460 37,000  Level FlightAware Transoceanic
03:44PM 26.5749 -144.8237 245° Southwest 400 460 37,000  Level FlightAware Transoceanic
03:45PM 26.5275 -144.9361 245° Southwest 400 460 37,000  Level FlightAware Transoceanic
03:46PM 26.4800 -145.0484 245° Southwest 400 460 37,000  Level FlightAware Transoceanic
03:47PM 26.4324 -145.1607 245° Southwest 400 460 37,000  Level FlightAware Transoceanic
03:48PM 26.3847 -145.2728 245° Southwest 400 460 37,000  Level FlightAware Transoceanic
03:49PM 26.3369 -145.3849 245° Southwest 400 460 37,000  Level FlightAware Transoceanic
03:50PM 26.2890 -145.4968 244° Southwest 400 460 37,000  Level FlightAware Transoceanic
03:51PM 26.2411 -145.6087 244° Southwest 400 460 37,000  Level FlightAware Transoceanic
03:52PM 26.1930 -145.7205 244° Southwest 400 460 37,000  Level FlightAware Transoceanic
03:53PM 26.1449 -145.8322 244° Southwest 400 460 37,000  Level FlightAware Transoceanic
03:54PM 26.0967 -145.9438 244° Southwest 400 460 37,000  Level FlightAware Transoceanic
03:55PM 26.0484 -146.0553 244° Southwest 400 460 37,000  Level FlightAware Transoceanic
03:56PM 26.0000 -146.1667 244° Southwest 400 460 37,000  Level FlightAware Transoceanic
03:57PM 25.9501 -146.2819 244° Southwest 400 460 37,000  Level FlightAware Transoceanic
03:58PM 25.9000 -146.3970 244° Southwest 400 460 37,000  Level FlightAware Transoceanic
03:59PM 25.8499 -146.5121 244° Southwest 400 460 37,000  Level FlightAware Transoceanic
03:59PM 26.0000 -146.1667 244° Southwest 406 467 37,000  Level Oakland Oceanic (ODAPS)
04:00PM 25.7997 -146.6270 244° Southwest 400 460 37,000  Level FlightAware Transoceanic
04:01PM 25.7495 -146.7419 244° Southwest 400 460 37,000  Level FlightAware Transoceanic
04:02PM 25.6991 -146.8566 244° Southwest 400 460 37,000  Level FlightAware Transoceanic
04:03PM 25.6486 -146.9713 244° Southwest 400 460 37,000  Level FlightAware Transoceanic
04:04PM 25.5980 -147.0858 244° Southwest 400 460 37,000  Level FlightAware Transoceanic
04:05PM 25.5474 -147.2003 244° Southwest 400 460 37,000  Level FlightAware Transoceanic
04:06PM 25.5054 -147.2950 244° Southwest 406 467 37,000  Level FlightAware Transoceanic
04:07PM 25.4555 -147.4073 244° Southwest 406 467 37,000  Level FlightAware Transoceanic
04:08PM 25.4054 -147.5195 244° Southwest 406 467 37,000  Level FlightAware Transoceanic
04:09PM 25.3553 -147.6316 244° Southwest 406 467 37,000  Level FlightAware Transoceanic
04:10PM 25.3051 -147.7437 244° Southwest 406 467 37,000  Level FlightAware Transoceanic
04:11PM 25.2549 -147.8556 244° Southwest 406 467 37,000  Level FlightAware Transoceanic
04:12PM 25.2045 -147.9675 244° Southwest 406 467 37,000  Level FlightAware Transoceanic
04:13PM 25.1541 -148.0792 243° Southwest 406 467 37,000  Level FlightAware Transoceanic
04:14PM 25.1035 -148.1909 243° Southwest 406 467 37,000  Level FlightAware Transoceanic
04:15PM 25.0529 -148.3024 243° Southwest 406 467 37,000  Level FlightAware Transoceanic
04:16PM 25.0022 -148.4139 243° Southwest 406 467 37,000  Level FlightAware Transoceanic
04:17PM 24.9515 -148.5253 243° Southwest 406 467 37,000  Level FlightAware Transoceanic
04:18PM 24.9006 -148.6366 243° Southwest 406 467 37,000  Level FlightAware Transoceanic
04:19PM 24.8496 -148.7478 243° Southwest 406 467 37,000  Level FlightAware Transoceanic
04:20PM 24.7986 -148.8589 243° Southwest 406 467 37,000  Level FlightAware Transoceanic
04:21PM 24.7475 -148.9700 243° Southwest 406 467 37,000  Level FlightAware Transoceanic
04:22PM 24.6963 -149.0809 243° Southwest 406 467 37,000  Level FlightAware Transoceanic
04:23PM 24.6451 -149.1917 243° Southwest 406 467 37,000  Level FlightAware Transoceanic
04:24PM 24.5937 -149.3025 243° Southwest 406 467 37,000  Level FlightAware Transoceanic
04:25PM 24.5423 -149.4131 243° Southwest 406 467 37,000  Level FlightAware Transoceanic
04:26PM 24.4908 -149.5237 243° Southwest 406 467 37,000  Level FlightAware Transoceanic
04:27PM 24.4392 -149.6342 243° Southwest 406 467 37,000  Level FlightAware Transoceanic
04:28PM 24.3875 -149.7446 243° Southwest 406 467 37,000  Level FlightAware Transoceanic
04:29PM 24.3357 -149.8548 243° Southwest 406 467 37,000  Level FlightAware Transoceanic
04:30PM 24.2839 -149.9651 243° Southwest 406 467 37,000  Level FlightAware Transoceanic
04:31PM 24.2320 -150.0752 243° Southwest 406 467 37,000  Level FlightAware Transoceanic
04:32PM 24.1800 -150.1852 243° Southwest 406 467 37,000  Level FlightAware Transoceanic
04:33PM 24.1279 -150.2951 243° Southwest 406 467 37,000  Level FlightAware Transoceanic
04:34PM 24.0758 -150.4050 242° Southwest 406 467 37,000  Level FlightAware Transoceanic
04:35PM 24.0236 -150.5147 242° Southwest 406 467 37,000  Level FlightAware Transoceanic
04:36PM 23.9712 -150.6244 242° Southwest 406 467 37,000  Level FlightAware Transoceanic
04:37PM 23.9189 -150.7340 242° Southwest 406 467 37,000  Level FlightAware Transoceanic
04:38PM 23.8664 -150.8435 242° Southwest 406 467 37,000  Level FlightAware Transoceanic
04:39PM 23.8139 -150.9529 242° Southwest 406 467 37,000  Level FlightAware Transoceanic
04:40PM 23.7612 -151.0622 242° Southwest 406 467 37,000  Level FlightAware Transoceanic
04:41PM 23.7085 -151.1714 242° Southwest 406 467 37,000  Level FlightAware Transoceanic
04:42PM 23.6558 -151.2805 242° Southwest 406 467 37,000  Level FlightAware Transoceanic
04:43PM 23.6029 -151.3896 242° Southwest 406 467 37,000  Level FlightAware Transoceanic
04:44PM 23.5500 -151.4985 242° Southwest 406 467 37,000  Level FlightAware Transoceanic
04:45PM 23.4970 -151.6074 242° Southwest 406 467 37,000  Level FlightAware Transoceanic
04:46PM 23.4439 -151.7162 242° Southwest 406 467 37,000  Level FlightAware Transoceanic
04:47PM 23.3908 -151.8249 242° Southwest 406 467 37,000  Level FlightAware Transoceanic
04:48PM 23.3376 -151.9335 242° Southwest 406 467 37,000  Level FlightAware Transoceanic
04:49PM 23.2843 -152.0420 242° Southwest 406 467 37,000  Level FlightAware Transoceanic
04:50PM 23.2309 -152.1505 242° Southwest 406 467 37,000  Level FlightAware Transoceanic
04:51PM 23.1775 -152.2588 242° Southwest 406 467 37,000  Level FlightAware Transoceanic
04:52PM 23.1239 -152.3671 242° Southwest 406 467 37,000  Level FlightAware Transoceanic
04:53PM 23.0703 -152.4752 242° Southwest 406 467 37,000  Level FlightAware Transoceanic
04:54PM 23.0167 -152.5833 242° Southwest 406 467 37,000  Level FlightAware Transoceanic
04:54PM 22.9833 -152.6333 242° Southwest 420 483 37,000  Level Honolulu Center
04:55PM 22.9629 -152.6921 242° Southwest 406 467 37,000  Level FlightAware Transoceanic
04:55PM 22.9333 -152.7333 242° Southwest 420 483 37,000  Level Honolulu Center
04:56PM 22.9091 -152.8009 242° Southwest 406 467 37,000  Level FlightAware Transoceanic
04:56PM 22.9167 -152.8667 262° West 410 472 37,000  Level Honolulu Center
04:57PM 22.8552 -152.9095 242° Southwest 406 467 37,000  Level FlightAware Transoceanic
04:57PM 22.9000 -152.9833 261° West 410 472 37,000  Level Honolulu Center
04:58PM 22.8012 -153.0180 242° Southwest 406 467 37,000  Level FlightAware Transoceanic
04:58PM 22.8833 -153.1167 262° West 420 483 37,000  Level Honolulu Center
04:59PM 22.7471 -153.1265 242° Southwest 406 467 37,000  Level FlightAware Transoceanic
04:59PM 22.8500 -153.2333 253° West 410 472 37,000  Level Honolulu Center
05:00PM 22.6930 -153.2349 242° Southwest 406 467 37,000  Level FlightAware Transoceanic
05:00PM 22.8333 -153.3667 262° West 410 472 37,000  Level Honolulu Center
05:01PM 22.8167 -153.4833 261° West 420 483 37,000  Level Honolulu Center
05:02PM 22.8000 -153.6167 262° West 410 472 37,000  Level Honolulu Center
05:03PM 22.7833 -153.7333 261° West 410 472 37,000  Level Honolulu Center
05:04PM 22.7667 -153.8500 261° West 410 472 37,000  Level Honolulu Center
05:05PM 22.7333 -153.9833 255° West 420 483 37,000  Level Honolulu Center
05:06PM 22.7167 -154.1000 261° West 420 483 37,000  Level Honolulu Center
05:07PM 22.7000 -154.2167 261° West 410 472 37,000  Level Honolulu Center
05:08PM 22.6667 -154.3500 255° West 410 472 37,000  Level Honolulu Center
05:09PM 22.6500 -154.4667 261° West 420 483 37,000  Level Honolulu Center
05:10PM 22.6333 -154.5833 261° West 410 472 37,000  Level Honolulu Center
05:11PM 22.6167 -154.7167 262° West 410 472 37,000  Level Honolulu Center
05:12PM 22.5833 -154.8333 253° West 410 472 37,000  Level Honolulu Center
05:13PM 22.5667 -154.9667 262° West 420 483 37,000  Level Honolulu Center
05:14PM 22.5500 -155.0833 261° West 410 472 37,000  Level Honolulu Center
05:15PM 22.5167 -155.2000 253° West 420 483 37,000  Level Honolulu Center
05:16PM 22.5000 -155.3167 261° West 410 472 37,000  Level Honolulu Center
05:17PM 22.4667 -155.4500 255° West 410 472 37,000  Level Honolulu Center
05:18PM 22.4500 -155.5667 261° West 410 472 37,000  Level Honolulu Center
05:19PM 22.4333 -155.6833 261° West 410 472 37,000  Level Honolulu Center
05:20PM 22.4000 -155.8167 255° West 410 472 37,000  Level Honolulu Center
05:21PM 22.3833 -155.9333 261° West 410 472 37,000  Level Honolulu Center
05:22PM 22.3667 -156.0500 261° West 410 472 37,000  Level Honolulu Center
05:23PM 22.3333 -156.1833 255° West 410 472 37,000  Level Honolulu Center
05:24PM 22.3167 -156.3000 261° West 410 472 37,000  Level Honolulu Center
05:25PM 22.3000 -156.4167 261° West 410 472 37,000  Level Honolulu Center
05:26PM 22.2667 -156.5333 253° West 410 472 37,000  Level Honolulu Center
05:27PM 22.2500 -156.6667 262° West 420 483 37,000  Level Honolulu Center
05:28PM 22.2167 -156.7833 253° West 420 483 37,000  Level Honolulu Center
05:29PM 22.2000 -156.9000 261° West 410 472 37,000  Level Honolulu Center
05:30PM 22.1667 -157.0167 253° West 410 472 37,000  Level Honolulu Center
05:32PM 22.1500 -157.1500 262° West 410 472 37,000  Level Honolulu Center
05:32PM 22.1333 -157.2667 261° West 420 483 37,000  Level Honolulu Center
05:34PM 22.1000 -157.4000 255° West 420 483 37,000 -300 Level Honolulu Center
05:35PM 22.0833 -157.5333 262° West 420 483 36,500 -2,100 Descending Honolulu Center
05:40PM 21.9540 -158.1790 262° West 433 498 24,200 -2,460 Descending FlightAware
05:40PM 21.9350 -158.2700 257° West 424 488 21,900 -1,860 Descending FlightAware
05:41PM 21.9140 -158.3740 258° West 407 468 21,100 -2,400 Descending FlightAware
05:43PM 21.8880 -158.5050 258° West 394 453 17,000 -3,240 Descending FlightAware
05:43PM 21.8690 -158.6000 258° West 385 443 15,000 -1,380 Descending FlightAware
05:44PM 21.8530 -158.6790 258° West 385 443 15,000  Level FlightAware
05:45PM 21.8380 -158.7580 258° West 385 443 15,000 -3,540 Level FlightAware
05:46PM 21.8167 -158.8333 258° West 370 426 9,800 -4,500 Descending Honolulu Center
05:47PM 21.7833 -158.9500 253° West 340 391 7,600 -2,100 Descending Honolulu Center
05:48PM 21.7667 -159.0333 258° West 330 380 5,600 -2,100 Descending Honolulu Center
05:49PM 21.7667 -159.1333 270° West 320 368 3,500 -1,320 Descending Honolulu Center
05:50PM 21.7667 -159.2167 270° West 280 322 3,000 -720 Descending Honolulu Center
05:51PM 21.8000 -159.2833 298° West 240 276 2,100 -960 Descending Honolulu Center